UAL2413 KBZN-KLAX
Flight info
| Callsign | UAL2413 |
|---|---|
| Flight time | 2h 17m |
| Altitude | 33000 |
| Route | MEADO2 DBS PROXI Q842 WINEN Q73 HAKMN ANJLL4 |
| Aircraft | B738/M-SDE2E3FGHIRWXY/LB1 |
Departure
| Time | 2026-04-22 22:06 |
|---|---|
| Airport | Bozeman Yellowstone International Airport (KBZN) |
Arrival
| Time | 2026-04-23 00:23 |
|---|---|
| Airport | Los Angeles International Airport (KLAX) |
| Time | Latitude | Longitude | Altitude | Speed | Heading |
|---|---|---|---|---|---|
| 2026-04-22 21:46 | 45.77966 | -111.16165 | 4481 ft | 0 kts | 226° |
| 2026-04-22 21:57 | 45.77974 | -111.16154 | 4480 ft | 2 kts | 226° |
| 2026-04-22 21:57 | 45.77980 | -111.16145 | 4480 ft | 2 kts | 222° |
| 2026-04-22 21:58 | 45.77994 | -111.16135 | 4480 ft | 2 kts | 192° |
| 2026-04-22 21:58 | 45.78009 | -111.16133 | 4480 ft | 2 kts | 169° |
| 2026-04-22 21:58 | 45.78022 | -111.16141 | 4480 ft | 2 kts | 147° |
| 2026-04-22 21:58 | 45.78029 | -111.16148 | 4480 ft | 1 kts | 132° |
| 2026-04-22 21:59 | 45.78032 | -111.16152 | 4480 ft | 0 kts | 135° |
| 2026-04-22 22:00 | 45.78031 | -111.16151 | 4480 ft | 1 kts | 135° |
| 2026-04-22 22:01 | 45.78008 | -111.16106 | 4480 ft | 8 kts | 102° |
| 2026-04-22 22:01 | 45.78041 | -111.16016 | 4480 ft | 12 kts | 88° |
| 2026-04-22 22:01 | 45.77977 | -111.15910 | 4480 ft | 19 kts | 136° |
| 2026-04-22 22:01 | 45.77866 | -111.15753 | 4480 ft | 23 kts | 136° |
| 2026-04-22 22:02 | 45.77750 | -111.15592 | 4480 ft | 22 kts | 135° |
| 2026-04-22 22:02 | 45.77634 | -111.15430 | 4480 ft | 25 kts | 136° |
| 2026-04-22 22:02 | 45.77506 | -111.15254 | 4480 ft | 23 kts | 137° |
| 2026-04-22 22:02 | 45.77398 | -111.15102 | 4480 ft | 19 kts | 136° |
| 2026-04-22 22:03 | 45.77308 | -111.14977 | 4480 ft | 19 kts | 136° |
| 2026-04-22 22:03 | 45.77234 | -111.14874 | 4480 ft | 24 kts | 136° |
| 2026-04-22 22:04 | 45.77097 | -111.14685 | 4480 ft | 27 kts | 136° |
| 2026-04-22 22:04 | 45.76967 | -111.14507 | 4480 ft | 20 kts | 136° |
| 2026-04-22 22:04 | 45.76932 | -111.14381 | 4480 ft | 13 kts | 50° |
| 2026-04-22 22:04 | 45.77010 | -111.14265 | 4480 ft | 19 kts | 46° |
| 2026-04-22 22:05 | 45.77065 | -111.14229 | 4480 ft | 2 kts | 314° |
| 2026-04-22 22:05 | 45.77091 | -111.14267 | 4480 ft | 19 kts | 314° |
| 2026-04-22 22:05 | 45.77362 | -111.14644 | 4480 ft | 88 kts | 316° |
| 2026-04-22 22:05 | 45.77964 | -111.15479 | 4480 ft | 147 kts | 316° |
| 2026-04-22 22:06 | 45.78821 | -111.16651 | 4584 ft | 185 kts | 314° |
| 2026-04-22 22:06 | 45.79751 | -111.17877 | 5213 ft | 186 kts | 311° |
| 2026-04-22 22:06 | 45.79885 | -111.18051 | 5296 ft | 187 kts | 309° |
| 2026-04-22 22:06 | 45.80750 | -111.19310 | 5874 ft | 190 kts | 305° |
| 2026-04-22 22:07 | 45.81684 | -111.20686 | 6378 ft | 196 kts | 310° |
| 2026-04-22 22:07 | 45.82668 | -111.22060 | 6864 ft | 200 kts | 311° |
| 2026-04-22 22:07 | 45.83662 | -111.23460 | 7351 ft | 205 kts | 311° |
| 2026-04-22 22:07 | 45.84666 | -111.24866 | 7874 ft | 209 kts | 310° |
| 2026-04-22 22:08 | 45.85756 | -111.26408 | 8070 ft | 232 kts | 311° |
| 2026-04-22 22:08 | 45.86958 | -111.28097 | 8246 ft | 255 kts | 312° |
| 2026-04-22 22:08 | 45.88294 | -111.29973 | 8520 ft | 278 kts | 312° |
| 2026-04-22 22:08 | 45.89598 | -111.31993 | 9288 ft | 276 kts | 300° |
| 2026-04-22 22:09 | 45.90279 | -111.34502 | 10011 ft | 270 kts | 270° |
| 2026-04-22 22:09 | 45.89928 | -111.37015 | 10763 ft | 260 kts | 238° |
| 2026-04-22 22:09 | 45.88815 | -111.39037 | 11498 ft | 259 kts | 224° |
| 2026-04-22 22:09 | 45.87524 | -111.40945 | 11792 ft | 279 kts | 225° |
| 2026-04-22 22:10 | 45.86124 | -111.43044 | 11987 ft | 301 kts | 225° |
| 2026-04-22 22:10 | 45.84615 | -111.45270 | 12115 ft | 325 kts | 224° |
| 2026-04-22 22:10 | 45.82936 | -111.47563 | 12411 ft | 340 kts | 216° |
| 2026-04-22 22:10 | 45.80937 | -111.49174 | 13448 ft | 329 kts | 203° |
| 2026-04-22 22:11 | 45.78814 | -111.50444 | 13797 ft | 343 kts | 202° |
| 2026-04-22 22:11 | 45.76567 | -111.51828 | 14258 ft | 352 kts | 203° |
| 2026-04-22 22:11 | 45.74330 | -111.53233 | 14808 ft | 358 kts | 203° |
| 2026-04-22 22:11 | 45.72061 | -111.54640 | 15414 ft | 361 kts | 202° |
| 2026-04-22 22:12 | 45.69737 | -111.56077 | 16032 ft | 363 kts | 202° |
| 2026-04-22 22:12 | 45.67431 | -111.57513 | 16568 ft | 367 kts | 202° |
| 2026-04-22 22:12 | 45.65085 | -111.58960 | 17166 ft | 369 kts | 202° |
| 2026-04-22 22:12 | 45.62716 | -111.60406 | 17745 ft | 371 kts | 202° |
| 2026-04-22 22:13 | 45.60354 | -111.61851 | 18291 ft | 374 kts | 202° |
| 2026-04-22 22:13 | 45.57980 | -111.63308 | 18791 ft | 377 kts | 202° |
| 2026-04-22 22:13 | 45.55566 | -111.64789 | 19303 ft | 380 kts | 202° |
| 2026-04-22 22:13 | 45.53134 | -111.66277 | 19791 ft | 383 kts | 201° |
| 2026-04-22 22:14 | 45.50668 | -111.67785 | 20280 ft | 385 kts | 201° |
| 2026-04-22 22:14 | 45.48204 | -111.69292 | 20728 ft | 388 kts | 201° |
| 2026-04-22 22:14 | 45.45735 | -111.70802 | 21190 ft | 391 kts | 201° |
| 2026-04-22 22:14 | 45.43263 | -111.72309 | 21636 ft | 393 kts | 201° |
| 2026-04-22 22:15 | 45.40751 | -111.73840 | 22044 ft | 396 kts | 201° |
| 2026-04-22 22:15 | 45.38215 | -111.75384 | 22453 ft | 398 kts | 201° |
| 2026-04-22 22:15 | 45.35667 | -111.76935 | 22844 ft | 401 kts | 201° |
| 2026-04-22 22:15 | 45.33085 | -111.78504 | 23233 ft | 404 kts | 201° |
| 2026-04-22 22:16 | 45.30496 | -111.79982 | 23624 ft | 405 kts | 197° |
| 2026-04-22 22:16 | 45.27803 | -111.81103 | 23946 ft | 407 kts | 192° |
| 2026-04-22 22:16 | 45.25059 | -111.82023 | 24356 ft | 408 kts | 191° |
| 2026-04-22 22:16 | 45.22276 | -111.82982 | 24731 ft | 410 kts | 192° |
| 2026-04-22 22:17 | 45.19542 | -111.83949 | 25056 ft | 412 kts | 192° |
| 2026-04-22 22:17 | 45.16760 | -111.84918 | 25427 ft | 413 kts | 192° |
| 2026-04-22 22:17 | 45.13932 | -111.85886 | 25668 ft | 418 kts | 192° |
| 2026-04-22 22:17 | 45.11135 | -111.86841 | 25966 ft | 420 kts | 192° |
| 2026-04-22 22:18 | 45.08295 | -111.87811 | 26314 ft | 420 kts | 192° |
| 2026-04-22 22:18 | 45.05455 | -111.88780 | 26623 ft | 422 kts | 192° |
| 2026-04-22 22:18 | 45.02631 | -111.89738 | 26921 ft | 423 kts | 192° |
| 2026-04-22 22:18 | 44.99742 | -111.90713 | 27238 ft | 424 kts | 192° |
| 2026-04-22 22:19 | 44.96878 | -111.91679 | 27475 ft | 427 kts | 192° |
| 2026-04-22 22:19 | 44.94022 | -111.92647 | 27799 ft | 427 kts | 192° |
| 2026-04-22 22:19 | 44.91106 | -111.93636 | 28002 ft | 430 kts | 192° |
| 2026-04-22 22:19 | 44.88240 | -111.94605 | 28252 ft | 431 kts | 192° |
| 2026-04-22 22:20 | 44.85290 | -111.95596 | 28530 ft | 432 kts | 192° |
| 2026-04-22 22:20 | 44.82378 | -111.96568 | 28754 ft | 434 kts | 192° |
| 2026-04-22 22:20 | 44.79452 | -111.97568 | 28983 ft | 436 kts | 192° |
| 2026-04-22 22:20 | 44.76498 | -111.98591 | 29260 ft | 436 kts | 192° |
| 2026-04-22 22:21 | 44.73573 | -111.99552 | 29465 ft | 438 kts | 192° |
| 2026-04-22 22:21 | 44.70598 | -112.00527 | 29721 ft | 439 kts | 193° |
| 2026-04-22 22:21 | 44.67614 | -112.01513 | 29925 ft | 441 kts | 193° |
| 2026-04-22 22:21 | 44.64674 | -112.02493 | 30191 ft | 441 kts | 193° |
| 2026-04-22 22:22 | 44.61686 | -112.03497 | 30446 ft | 442 kts | 193° |
| 2026-04-22 22:22 | 44.58711 | -112.04491 | 30729 ft | 441 kts | 193° |
| 2026-04-22 22:22 | 44.55722 | -112.05482 | 30961 ft | 442 kts | 193° |
| 2026-04-22 22:22 | 44.52746 | -112.06468 | 31204 ft | 442 kts | 193° |
| 2026-04-22 22:23 | 44.49778 | -112.07452 | 31547 ft | 439 kts | 193° |
| 2026-04-22 22:23 | 44.46818 | -112.08431 | 31818 ft | 438 kts | 193° |
| 2026-04-22 22:23 | 44.43856 | -112.09409 | 32120 ft | 437 kts | 193° |
| 2026-04-22 22:23 | 44.40925 | -112.10377 | 32408 ft | 435 kts | 193° |
| 2026-04-22 22:24 | 44.38026 | -112.11339 | 32709 ft | 433 kts | 193° |
| 2026-04-22 22:24 | 44.35081 | -112.12318 | 32810 ft | 434 kts | 193° |
| 2026-04-22 22:24 | 44.32162 | -112.13286 | 32818 ft | 433 kts | 193° |
| 2026-04-22 22:25 | 44.26350 | -112.15202 | 32833 ft | 431 kts | 193° |
| 2026-04-22 22:25 | 44.20562 | -112.17106 | 32836 ft | 430 kts | 193° |
| 2026-04-22 22:26 | 44.14742 | -112.19016 | 32839 ft | 430 kts | 193° |
| 2026-04-22 22:26 | 44.08933 | -112.20891 | 32840 ft | 429 kts | 191° |
| 2026-04-22 22:27 | 44.03048 | -112.21883 | 32843 ft | 429 kts | 186° |
| 2026-04-22 22:27 | 43.97142 | -112.22758 | 32845 ft | 429 kts | 187° |
| 2026-04-22 22:28 | 43.91232 | -112.23676 | 32856 ft | 429 kts | 187° |
| 2026-04-22 22:28 | 43.85340 | -112.24573 | 32876 ft | 429 kts | 187° |
| 2026-04-22 22:29 | 43.79377 | -112.25488 | 32867 ft | 431 kts | 187° |
| 2026-04-22 22:29 | 43.73476 | -112.26391 | 32869 ft | 431 kts | 187° |
| 2026-04-22 22:30 | 43.67547 | -112.27296 | 32873 ft | 430 kts | 187° |
| 2026-04-22 22:30 | 43.61597 | -112.28204 | 32877 ft | 431 kts | 187° |
| 2026-04-22 22:31 | 43.55650 | -112.29110 | 32879 ft | 432 kts | 187° |
| 2026-04-22 22:31 | 43.49701 | -112.30015 | 32886 ft | 431 kts | 187° |
| 2026-04-22 22:32 | 43.43760 | -112.30916 | 32889 ft | 431 kts | 187° |
| 2026-04-22 22:32 | 43.37824 | -112.31815 | 32893 ft | 431 kts | 187° |
| 2026-04-22 22:33 | 43.31902 | -112.32712 | 32900 ft | 431 kts | 187° |
| 2026-04-22 22:33 | 43.25944 | -112.33611 | 32913 ft | 432 kts | 187° |
| 2026-04-22 22:34 | 43.20010 | -112.34503 | 32923 ft | 431 kts | 188° |
| 2026-04-22 22:34 | 43.14095 | -112.35392 | 32934 ft | 431 kts | 188° |
| 2026-04-22 22:35 | 43.08150 | -112.36285 | 32942 ft | 431 kts | 188° |
| 2026-04-22 22:35 | 43.02209 | -112.37174 | 32948 ft | 431 kts | 188° |
| 2026-04-22 22:36 | 42.96301 | -112.38054 | 32950 ft | 430 kts | 188° |
| 2026-04-22 22:36 | 42.90344 | -112.38945 | 32952 ft | 430 kts | 188° |
| 2026-04-22 22:37 | 42.84439 | -112.39824 | 32953 ft | 429 kts | 188° |
| 2026-04-22 22:37 | 42.78551 | -112.40695 | 32954 ft | 428 kts | 189° |
| 2026-04-22 22:38 | 42.72625 | -112.41575 | 32955 ft | 429 kts | 189° |
| 2026-04-22 22:38 | 42.66730 | -112.42448 | 32957 ft | 427 kts | 189° |
| 2026-04-22 22:39 | 42.60844 | -112.43317 | 32960 ft | 426 kts | 189° |
| 2026-04-22 22:39 | 42.55005 | -112.44177 | 32964 ft | 426 kts | 189° |
| 2026-04-22 22:40 | 42.49102 | -112.45046 | 32968 ft | 426 kts | 189° |
| 2026-04-22 22:40 | 42.43264 | -112.45902 | 32975 ft | 426 kts | 189° |
| 2026-04-22 22:41 | 42.37385 | -112.46765 | 32982 ft | 426 kts | 189° |
| 2026-04-22 22:41 | 42.31504 | -112.47624 | 32989 ft | 424 kts | 189° |
| 2026-04-22 22:42 | 42.25685 | -112.48475 | 32998 ft | 425 kts | 189° |
| 2026-04-22 22:42 | 42.19801 | -112.49333 | 33016 ft | 426 kts | 189° |
| 2026-04-22 22:43 | 42.13965 | -112.50182 | 33003 ft | 424 kts | 189° |
| 2026-04-22 22:43 | 42.08111 | -112.51032 | 33010 ft | 423 kts | 189° |
| 2026-04-22 22:44 | 42.02300 | -112.51874 | 33014 ft | 422 kts | 189° |
| 2026-04-22 22:44 | 41.96485 | -112.52666 | 33017 ft | 422 kts | 188° |
| 2026-04-22 22:45 | 41.90608 | -112.52714 | 33023 ft | 423 kts | 184° |
| 2026-04-22 22:45 | 41.84764 | -112.52748 | 33026 ft | 424 kts | 185° |
| 2026-04-22 22:46 | 41.78882 | -112.52809 | 33029 ft | 423 kts | 185° |
| 2026-04-22 22:46 | 41.73009 | -112.52863 | 33049 ft | 424 kts | 185° |
| 2026-04-22 22:47 | 41.67137 | -112.52921 | 33040 ft | 424 kts | 185° |
| 2026-04-22 22:47 | 41.61280 | -112.52979 | 33040 ft | 423 kts | 185° |
| 2026-04-22 22:48 | 41.55433 | -112.53037 | 33040 ft | 424 kts | 186° |
| 2026-04-22 22:48 | 41.49549 | -112.53098 | 33033 ft | 425 kts | 186° |
| 2026-04-22 22:49 | 41.43681 | -112.53157 | 33033 ft | 423 kts | 186° |
| 2026-04-22 22:49 | 41.37826 | -112.53218 | 33034 ft | 422 kts | 186° |
| 2026-04-22 22:50 | 41.31956 | -112.53278 | 33033 ft | 421 kts | 186° |
| 2026-04-22 22:50 | 41.26152 | -112.53336 | 33034 ft | 421 kts | 187° |
| 2026-04-22 22:51 | 41.20312 | -112.53565 | 33034 ft | 419 kts | 188° |
| 2026-04-22 22:51 | 41.14518 | -112.53806 | 33034 ft | 419 kts | 188° |
| 2026-04-22 22:52 | 41.08706 | -112.54023 | 33031 ft | 419 kts | 188° |
| 2026-04-22 22:52 | 41.02891 | -112.54260 | 33030 ft | 418 kts | 188° |
| 2026-04-22 22:53 | 40.97119 | -112.54491 | 33030 ft | 418 kts | 188° |
| 2026-04-22 22:53 | 40.91356 | -112.54710 | 33029 ft | 417 kts | 188° |
| 2026-04-22 22:54 | 40.85561 | -112.54930 | 33029 ft | 416 kts | 189° |
| 2026-04-22 22:54 | 40.79786 | -112.55151 | 33029 ft | 415 kts | 189° |
| 2026-04-22 22:55 | 40.74072 | -112.55376 | 33029 ft | 414 kts | 189° |
| 2026-04-22 22:55 | 40.65470 | -112.55702 | 33029 ft | 414 kts | 189° |
| 2026-04-22 22:56 | 40.59728 | -112.55926 | 33028 ft | 413 kts | 189° |
| 2026-04-22 22:56 | 40.54000 | -112.56149 | 33028 ft | 412 kts | 189° |
| 2026-04-22 22:57 | 40.48304 | -112.56368 | 33029 ft | 413 kts | 189° |
| 2026-04-22 22:57 | 40.42554 | -112.56589 | 33029 ft | 414 kts | 190° |
| 2026-04-22 22:58 | 40.36867 | -112.56805 | 33030 ft | 413 kts | 190° |
| 2026-04-22 22:58 | 40.31139 | -112.57024 | 33031 ft | 410 kts | 190° |
| 2026-04-22 22:59 | 40.25460 | -112.57243 | 33032 ft | 411 kts | 190° |
| 2026-04-22 22:59 | 40.19841 | -112.57824 | 33031 ft | 399 kts | 202° |
| 2026-04-22 23:00 | 40.14677 | -112.60176 | 33031 ft | 395 kts | 205° |
| 2026-04-22 23:00 | 40.09409 | -112.62288 | 33032 ft | 396 kts | 204° |
| 2026-04-22 23:01 | 40.04163 | -112.64328 | 33031 ft | 397 kts | 203° |
| 2026-04-22 23:01 | 39.98875 | -112.66335 | 33032 ft | 397 kts | 203° |
| 2026-04-22 23:02 | 39.93626 | -112.68292 | 33029 ft | 391 kts | 203° |
| 2026-04-22 23:02 | 39.88412 | -112.70249 | 33028 ft | 392 kts | 203° |
| 2026-04-22 23:03 | 39.83173 | -112.72201 | 33026 ft | 393 kts | 203° |
| 2026-04-22 23:03 | 39.77951 | -112.74132 | 33023 ft | 392 kts | 203° |
| 2026-04-22 23:04 | 39.72724 | -112.76065 | 33020 ft | 391 kts | 203° |
| 2026-04-22 23:04 | 39.67513 | -112.77988 | 33018 ft | 391 kts | 203° |
| 2026-04-22 23:05 | 39.62281 | -112.79912 | 33016 ft | 391 kts | 204° |
| 2026-04-22 23:05 | 39.57080 | -112.81825 | 33015 ft | 392 kts | 204° |
| 2026-04-22 23:06 | 39.51826 | -112.83754 | 33014 ft | 391 kts | 204° |
| 2026-04-22 23:06 | 39.46646 | -112.85654 | 33013 ft | 390 kts | 204° |
| 2026-04-22 23:07 | 39.41420 | -112.87568 | 33013 ft | 391 kts | 204° |
| 2026-04-22 23:07 | 39.36221 | -112.89468 | 33010 ft | 391 kts | 204° |
| 2026-04-22 23:08 | 39.30981 | -112.91378 | 33010 ft | 390 kts | 204° |
| 2026-04-22 23:08 | 39.25786 | -112.93270 | 33009 ft | 389 kts | 204° |
| 2026-04-22 23:09 | 39.20591 | -112.95159 | 33009 ft | 389 kts | 204° |
| 2026-04-22 23:09 | 39.15407 | -112.97044 | 33009 ft | 388 kts | 204° |
| 2026-04-22 23:10 | 39.10235 | -112.98918 | 33010 ft | 388 kts | 204° |
| 2026-04-22 23:10 | 39.05066 | -113.00789 | 33010 ft | 390 kts | 204° |
| 2026-04-22 23:11 | 38.99865 | -113.02668 | 33012 ft | 389 kts | 204° |
| 2026-04-22 23:11 | 38.94672 | -113.04542 | 33011 ft | 388 kts | 204° |
| 2026-04-22 23:12 | 38.89498 | -113.06407 | 33011 ft | 388 kts | 204° |
| 2026-04-22 23:12 | 38.84317 | -113.08273 | 33009 ft | 388 kts | 204° |
| 2026-04-22 23:13 | 38.79154 | -113.10125 | 33008 ft | 387 kts | 204° |
| 2026-04-22 23:13 | 38.73996 | -113.11976 | 33004 ft | 386 kts | 204° |
| 2026-04-22 23:14 | 38.68831 | -113.13827 | 33003 ft | 386 kts | 205° |
| 2026-04-22 23:14 | 38.63683 | -113.15667 | 33002 ft | 387 kts | 205° |
| 2026-04-22 23:15 | 38.58493 | -113.17521 | 33001 ft | 388 kts | 205° |
| 2026-04-22 23:15 | 38.53343 | -113.19357 | 33001 ft | 387 kts | 205° |
| 2026-04-22 23:16 | 38.48156 | -113.21204 | 33001 ft | 386 kts | 205° |
| 2026-04-22 23:16 | 38.43012 | -113.23032 | 33001 ft | 384 kts | 205° |
| 2026-04-22 23:17 | 38.37894 | -113.24850 | 33002 ft | 384 kts | 205° |
| 2026-04-22 23:17 | 38.32782 | -113.26665 | 33003 ft | 385 kts | 205° |
| 2026-04-22 23:18 | 38.27618 | -113.28491 | 33004 ft | 385 kts | 205° |
| 2026-04-22 23:18 | 38.22481 | -113.30306 | 33006 ft | 384 kts | 205° |
| 2026-04-22 23:19 | 38.17362 | -113.32111 | 33007 ft | 383 kts | 205° |
| 2026-04-22 23:19 | 38.12256 | -113.33911 | 33010 ft | 383 kts | 205° |
| 2026-04-22 23:20 | 38.07160 | -113.35703 | 33012 ft | 382 kts | 205° |
| 2026-04-22 23:20 | 38.02070 | -113.37493 | 33014 ft | 382 kts | 205° |
| 2026-04-22 23:21 | 37.96946 | -113.39291 | 33016 ft | 384 kts | 205° |
| 2026-04-22 23:21 | 37.91799 | -113.41094 | 33016 ft | 384 kts | 205° |
| 2026-04-22 23:22 | 37.86686 | -113.42883 | 33017 ft | 384 kts | 205° |
| 2026-04-22 23:22 | 37.81579 | -113.44666 | 33018 ft | 383 kts | 205° |
| 2026-04-22 23:23 | 37.76447 | -113.46457 | 33017 ft | 383 kts | 205° |
| 2026-04-22 23:23 | 37.71320 | -113.48244 | 33017 ft | 384 kts | 205° |
| 2026-04-22 23:24 | 37.66189 | -113.50028 | 33020 ft | 384 kts | 205° |
| 2026-04-22 23:24 | 37.61053 | -113.51814 | 33009 ft | 385 kts | 205° |
| 2026-04-22 23:25 | 37.55912 | -113.53595 | 33005 ft | 385 kts | 205° |
| 2026-04-22 23:25 | 37.50745 | -113.55385 | 33000 ft | 385 kts | 205° |
| 2026-04-22 23:26 | 37.45600 | -113.57166 | 32994 ft | 387 kts | 205° |
| 2026-04-22 23:26 | 37.40419 | -113.58953 | 32987 ft | 387 kts | 205° |
| 2026-04-22 23:27 | 37.35245 | -113.60738 | 32981 ft | 387 kts | 205° |
| 2026-04-22 23:27 | 37.30060 | -113.62524 | 32976 ft | 388 kts | 205° |
| 2026-04-22 23:28 | 37.24894 | -113.64300 | 32972 ft | 388 kts | 205° |
| 2026-04-22 23:28 | 37.19671 | -113.66095 | 32968 ft | 390 kts | 204° |
| 2026-04-22 23:29 | 37.14452 | -113.67883 | 32966 ft | 391 kts | 204° |
| 2026-04-22 23:29 | 37.09213 | -113.69673 | 32965 ft | 392 kts | 204° |
| 2026-04-22 23:30 | 37.04020 | -113.71510 | 32964 ft | 388 kts | 207° |
| 2026-04-22 23:30 | 36.99025 | -113.73974 | 32972 ft | 386 kts | 210° |
| 2026-04-22 23:31 | 36.94033 | -113.76399 | 32961 ft | 384 kts | 209° |
| 2026-04-22 23:31 | 36.89104 | -113.78791 | 32965 ft | 383 kts | 209° |
| 2026-04-22 23:32 | 36.84137 | -113.81204 | 32965 ft | 386 kts | 209° |
| 2026-04-22 23:32 | 36.79123 | -113.83624 | 32965 ft | 388 kts | 209° |
| 2026-04-22 23:33 | 36.74437 | -113.86652 | 32972 ft | 373 kts | 226° |
| 2026-04-22 23:33 | 36.70644 | -113.91016 | 32965 ft | 375 kts | 225° |
| 2026-04-22 23:34 | 36.66604 | -113.95161 | 32731 ft | 378 kts | 224° |
| 2026-04-22 23:34 | 36.64594 | -113.97213 | 32482 ft | 378 kts | 224° |
| 2026-04-22 23:34 | 36.62557 | -113.99272 | 32230 ft | 378 kts | 224° |
| 2026-04-22 23:35 | 36.60503 | -114.01324 | 31974 ft | 378 kts | 223° |
| 2026-04-22 23:35 | 36.58456 | -114.03365 | 31724 ft | 379 kts | 223° |
| 2026-04-22 23:35 | 36.56419 | -114.05396 | 31476 ft | 380 kts | 223° |
| 2026-04-22 23:35 | 36.54376 | -114.07422 | 31218 ft | 374 kts | 223° |
| 2026-04-22 23:36 | 36.52329 | -114.09444 | 31000 ft | 379 kts | 223° |
| 2026-04-22 23:36 | 36.50274 | -114.11478 | 30978 ft | 383 kts | 223° |
| 2026-04-22 23:36 | 36.46061 | -114.15641 | 30974 ft | 389 kts | 223° |
| 2026-04-22 23:37 | 36.41840 | -114.19795 | 30974 ft | 389 kts | 223° |
| 2026-04-22 23:37 | 36.37628 | -114.23935 | 30975 ft | 387 kts | 223° |
| 2026-04-22 23:38 | 36.33405 | -114.28079 | 30975 ft | 388 kts | 223° |
| 2026-04-22 23:38 | 36.29183 | -114.32216 | 30973 ft | 387 kts | 223° |
| 2026-04-22 23:39 | 36.24991 | -114.36317 | 30972 ft | 387 kts | 223° |
| 2026-04-22 23:39 | 36.20786 | -114.40425 | 30961 ft | 387 kts | 223° |
| 2026-04-22 23:40 | 36.16550 | -114.44559 | 30944 ft | 389 kts | 223° |
| 2026-04-22 23:40 | 36.12297 | -114.48701 | 30944 ft | 389 kts | 223° |
| 2026-04-22 23:41 | 36.08056 | -114.52827 | 30944 ft | 389 kts | 223° |
| 2026-04-22 23:41 | 36.03825 | -114.56937 | 30946 ft | 389 kts | 223° |
| 2026-04-22 23:42 | 35.99555 | -114.61079 | 30944 ft | 391 kts | 223° |
| 2026-04-22 23:42 | 35.95280 | -114.65224 | 30948 ft | 395 kts | 222° |
| 2026-04-22 23:43 | 35.90972 | -114.69387 | 30954 ft | 394 kts | 222° |
| 2026-04-22 23:43 | 35.86688 | -114.73525 | 30955 ft | 393 kts | 222° |
| 2026-04-22 23:44 | 35.82388 | -114.77673 | 30955 ft | 395 kts | 222° |
| 2026-04-22 23:44 | 35.78060 | -114.81842 | 30955 ft | 395 kts | 222° |
| 2026-04-22 23:45 | 35.73744 | -114.85992 | 30956 ft | 395 kts | 222° |
| 2026-04-22 23:45 | 35.69417 | -114.90150 | 30970 ft | 397 kts | 222° |
| 2026-04-22 23:46 | 35.65060 | -114.94327 | 30972 ft | 397 kts | 222° |
| 2026-04-22 23:46 | 35.60728 | -114.98476 | 30973 ft | 396 kts | 222° |
| 2026-04-22 23:47 | 35.56387 | -115.02628 | 30971 ft | 397 kts | 222° |
| 2026-04-22 23:47 | 35.52065 | -115.06782 | 30972 ft | 397 kts | 223° |
| 2026-04-22 23:48 | 35.48182 | -115.11478 | 30972 ft | 393 kts | 230° |
| 2026-04-22 23:48 | 35.44434 | -115.16355 | 30979 ft | 392 kts | 229° |
| 2026-04-22 23:49 | 35.40686 | -115.21206 | 30985 ft | 394 kts | 229° |
| 2026-04-22 23:49 | 35.36914 | -115.26111 | 30987 ft | 395 kts | 229° |
| 2026-04-22 23:50 | 35.33172 | -115.30972 | 30987 ft | 395 kts | 229° |
| 2026-04-22 23:50 | 35.29415 | -115.35851 | 30988 ft | 394 kts | 230° |
| 2026-04-22 23:51 | 35.25653 | -115.40732 | 31000 ft | 394 kts | 230° |
| 2026-04-22 23:51 | 35.21911 | -115.45579 | 31003 ft | 393 kts | 230° |
| 2026-04-22 23:52 | 35.18169 | -115.50423 | 31005 ft | 394 kts | 230° |
| 2026-04-22 23:52 | 35.14415 | -115.55273 | 31008 ft | 392 kts | 230° |
| 2026-04-22 23:53 | 35.10690 | -115.60072 | 31011 ft | 392 kts | 229° |
| 2026-04-22 23:53 | 35.06933 | -115.64874 | 31014 ft | 393 kts | 229° |
| 2026-04-22 23:54 | 35.03155 | -115.69703 | 31017 ft | 393 kts | 229° |
| 2026-04-22 23:54 | 34.99388 | -115.74508 | 31021 ft | 396 kts | 229° |
| 2026-04-22 23:55 | 34.95576 | -115.79365 | 31024 ft | 396 kts | 229° |
| 2026-04-22 23:55 | 34.91785 | -115.84188 | 31028 ft | 396 kts | 229° |
| 2026-04-22 23:56 | 34.87968 | -115.89037 | 31032 ft | 397 kts | 229° |
| 2026-04-22 23:56 | 34.84153 | -115.93878 | 31036 ft | 397 kts | 229° |
| 2026-04-22 23:57 | 34.80340 | -115.98713 | 31041 ft | 398 kts | 229° |
| 2026-04-22 23:57 | 34.76515 | -116.03552 | 31043 ft | 397 kts | 229° |
| 2026-04-22 23:58 | 34.72723 | -116.08390 | 31046 ft | 397 kts | 229° |
| 2026-04-22 23:58 | 34.68922 | -116.13230 | 31050 ft | 397 kts | 229° |
| 2026-04-22 23:59 | 34.65128 | -116.18055 | 31051 ft | 398 kts | 229° |
| 2026-04-22 23:59 | 34.61304 | -116.22909 | 31053 ft | 398 kts | 229° |
| 2026-04-23 00:00 | 34.55567 | -116.30179 | 31057 ft | 399 kts | 229° |
| 2026-04-23 00:01 | 34.51735 | -116.35027 | 31058 ft | 400 kts | 229° |
| 2026-04-23 00:01 | 34.47907 | -116.39861 | 31057 ft | 399 kts | 229° |
| 2026-04-23 00:01 | 34.45997 | -116.42271 | 30922 ft | 401 kts | 229° |
| 2026-04-23 00:02 | 34.44076 | -116.44769 | 30665 ft | 401 kts | 231° |
| 2026-04-23 00:02 | 34.42339 | -116.47361 | 30415 ft | 400 kts | 235° |
| 2026-04-23 00:02 | 34.40836 | -116.50191 | 30164 ft | 399 kts | 241° |
| 2026-04-23 00:02 | 34.39517 | -116.53304 | 29907 ft | 400 kts | 243° |
| 2026-04-23 00:03 | 34.38268 | -116.56315 | 29657 ft | 401 kts | 243° |
| 2026-04-23 00:03 | 34.36991 | -116.59319 | 29406 ft | 402 kts | 243° |
| 2026-04-23 00:03 | 34.35717 | -116.62334 | 29156 ft | 403 kts | 243° |
| 2026-04-23 00:03 | 34.34457 | -116.65353 | 28902 ft | 399 kts | 243° |
| 2026-04-23 00:04 | 34.33246 | -116.68277 | 28644 ft | 386 kts | 243° |
| 2026-04-23 00:04 | 34.32084 | -116.71130 | 28395 ft | 372 kts | 243° |
| 2026-04-23 00:04 | 34.30972 | -116.73895 | 28145 ft | 361 kts | 243° |
| 2026-04-23 00:04 | 34.29880 | -116.76607 | 27902 ft | 363 kts | 243° |
| 2026-04-23 00:05 | 34.28769 | -116.79356 | 27655 ft | 365 kts | 243° |
| 2026-04-23 00:05 | 34.27661 | -116.82100 | 27406 ft | 366 kts | 244° |
| 2026-04-23 00:05 | 34.26546 | -116.84862 | 26940 ft | 360 kts | 244° |
| 2026-04-23 00:05 | 34.25468 | -116.87532 | 26403 ft | 355 kts | 244° |
| 2026-04-23 00:06 | 34.24402 | -116.90171 | 25838 ft | 350 kts | 244° |
| 2026-04-23 00:06 | 34.23331 | -116.92817 | 25263 ft | 346 kts | 244° |
| 2026-04-23 00:06 | 34.22296 | -116.95376 | 24696 ft | 342 kts | 244° |
| 2026-04-23 00:06 | 34.21285 | -116.97949 | 24176 ft | 338 kts | 247° |
| 2026-04-23 00:07 | 34.20483 | -117.00639 | 24094 ft | 340 kts | 251° |
| 2026-04-23 00:07 | 34.19768 | -117.03381 | 23887 ft | 350 kts | 251° |
| 2026-04-23 00:07 | 34.19022 | -117.06132 | 23438 ft | 344 kts | 251° |
| 2026-04-23 00:07 | 34.18274 | -117.08853 | 22886 ft | 340 kts | 251° |
| 2026-04-23 00:08 | 34.17540 | -117.11549 | 22312 ft | 336 kts | 251° |
| 2026-04-23 00:08 | 34.16824 | -117.14191 | 21744 ft | 332 kts | 251° |
| 2026-04-23 00:08 | 34.16107 | -117.16816 | 21176 ft | 329 kts | 251° |
| 2026-04-23 00:08 | 34.15383 | -117.19434 | 20603 ft | 325 kts | 251° |
| 2026-04-23 00:09 | 34.14679 | -117.21983 | 20047 ft | 324 kts | 251° |
| 2026-04-23 00:09 | 34.13953 | -117.24621 | 19473 ft | 340 kts | 251° |
| 2026-04-23 00:09 | 34.13199 | -117.27361 | 18856 ft | 352 kts | 251° |
| 2026-04-23 00:09 | 34.12423 | -117.30174 | 18228 ft | 350 kts | 251° |
| 2026-04-23 00:10 | 34.11666 | -117.32912 | 17615 ft | 345 kts | 251° |
| 2026-04-23 00:10 | 34.10916 | -117.35626 | 16925 ft | 342 kts | 251° |
| 2026-04-23 00:10 | 34.10186 | -117.38322 | 16279 ft | 339 kts | 253° |
| 2026-04-23 00:10 | 34.09512 | -117.41042 | 15662 ft | 336 kts | 253° |
| 2026-04-23 00:11 | 34.08848 | -117.43746 | 15050 ft | 335 kts | 253° |
| 2026-04-23 00:11 | 34.08176 | -117.46420 | 14441 ft | 334 kts | 253° |
| 2026-04-23 00:11 | 34.07507 | -117.49070 | 14001 ft | 329 kts | 253° |
| 2026-04-23 00:11 | 34.06713 | -117.51650 | 13982 ft | 329 kts | 248° |
| 2026-04-23 00:12 | 34.05779 | -117.54159 | 13912 ft | 335 kts | 247° |
| 2026-04-23 00:12 | 34.04839 | -117.56737 | 13359 ft | 337 kts | 248° |
| 2026-04-23 00:12 | 34.03927 | -117.59293 | 12798 ft | 331 kts | 248° |
| 2026-04-23 00:12 | 34.03020 | -117.61817 | 12232 ft | 327 kts | 248° |
| 2026-04-23 00:13 | 34.02118 | -117.64311 | 11662 ft | 315 kts | 248° |
| 2026-04-23 00:13 | 34.01271 | -117.66644 | 11146 ft | 299 kts | 248° |
| 2026-04-23 00:13 | 34.00627 | -117.68945 | 10633 ft | 285 kts | 261° |
| 2026-04-23 00:13 | 34.00403 | -117.71268 | 10340 ft | 269 kts | 264° |
| 2026-04-23 00:14 | 34.00195 | -117.73476 | 10234 ft | 269 kts | 263° |
| 2026-04-23 00:14 | 33.99965 | -117.75746 | 10042 ft | 275 kts | 263° |
| 2026-04-23 00:14 | 33.99741 | -117.78020 | 9627 ft | 275 kts | 263° |
| 2026-04-23 00:14 | 33.99519 | -117.80292 | 9212 ft | 273 kts | 263° |
| 2026-04-23 00:15 | 33.99294 | -117.82573 | 8797 ft | 272 kts | 263° |
| 2026-04-23 00:15 | 33.99075 | -117.84834 | 8384 ft | 271 kts | 263° |
| 2026-04-23 00:15 | 33.98858 | -117.87064 | 7976 ft | 271 kts | 263° |
| 2026-04-23 00:15 | 33.98640 | -117.89306 | 7563 ft | 271 kts | 263° |
| 2026-04-23 00:16 | 33.98417 | -117.91574 | 7140 ft | 270 kts | 263° |
| 2026-04-23 00:16 | 33.98200 | -117.93783 | 6734 ft | 260 kts | 263° |
| 2026-04-23 00:16 | 33.97991 | -117.95905 | 6340 ft | 251 kts | 263° |
| 2026-04-23 00:16 | 33.97791 | -117.97930 | 5965 ft | 244 kts | 263° |
| 2026-04-23 00:17 | 33.97592 | -117.99935 | 5587 ft | 237 kts | 263° |
| 2026-04-23 00:17 | 33.97401 | -118.01852 | 5361 ft | 223 kts | 263° |
| 2026-04-23 00:17 | 33.97216 | -118.03674 | 5284 ft | 221 kts | 263° |
| 2026-04-23 00:17 | 33.97034 | -118.05518 | 5172 ft | 222 kts | 263° |
| 2026-04-23 00:18 | 33.96850 | -118.07375 | 5061 ft | 223 kts | 263° |
| 2026-04-23 00:18 | 33.96668 | -118.09212 | 4906 ft | 222 kts | 263° |
| 2026-04-23 00:18 | 33.96482 | -118.11081 | 4635 ft | 222 kts | 263° |
| 2026-04-23 00:18 | 33.96299 | -118.12913 | 4343 ft | 219 kts | 263° |
| 2026-04-23 00:19 | 33.96118 | -118.14719 | 4056 ft | 220 kts | 263° |
| 2026-04-23 00:19 | 33.95937 | -118.16530 | 3733 ft | 213 kts | 262° |
| 2026-04-23 00:19 | 33.95762 | -118.18272 | 3437 ft | 202 kts | 262° |
| 2026-04-23 00:19 | 33.95600 | -118.19887 | 3170 ft | 191 kts | 262° |
| 2026-04-23 00:20 | 33.95444 | -118.21429 | 2912 ft | 181 kts | 262° |
| 2026-04-23 00:20 | 33.95295 | -118.22916 | 2670 ft | 178 kts | 262° |
| 2026-04-23 00:20 | 33.95145 | -118.24400 | 2423 ft | 179 kts | 262° |
| 2026-04-23 00:20 | 33.94995 | -118.25880 | 2176 ft | 178 kts | 262° |
| 2026-04-23 00:21 | 33.94846 | -118.27350 | 1932 ft | 176 kts | 263° |
| 2026-04-23 00:21 | 33.94700 | -118.28796 | 1705 ft | 175 kts | 263° |
| 2026-04-23 00:21 | 33.94555 | -118.30232 | 1448 ft | 165 kts | 264° |
| 2026-04-23 00:21 | 33.94422 | -118.31515 | 1238 ft | 143 kts | 264° |
| 2026-04-23 00:22 | 33.94306 | -118.32685 | 1066 ft | 141 kts | 264° |
| 2026-04-23 00:22 | 33.94190 | -118.33848 | 864 ft | 142 kts | 266° |
| 2026-04-23 00:22 | 33.94077 | -118.35036 | 680 ft | 147 kts | 264° |
| 2026-04-23 00:22 | 33.93963 | -118.36243 | 504 ft | 140 kts | 260° |
| 2026-04-23 00:23 | 33.93834 | -118.37434 | 294 ft | 141 kts | 259° |
| 2026-04-23 00:23 | 33.93704 | -118.38602 | 116 ft | 141 kts | 262° |
| 2026-04-23 00:23 | 33.93610 | -118.39508 | 121 ft | 74 kts | 263° |
| 2026-04-23 00:23 | 33.93565 | -118.39966 | 123 ft | 38 kts | 264° |
| 2026-04-23 00:24 | 33.93586 | -118.40241 | 124 ft | 28 kts | 288° |
| 2026-04-23 00:24 | 33.93626 | -118.40449 | 125 ft | 24 kts | 263° |
| 2026-04-23 00:24 | 33.93605 | -118.40642 | 127 ft | 21 kts | 264° |
| 2026-04-23 00:24 | 33.93598 | -118.40814 | 127 ft | 21 kts | 282° |
| 2026-04-23 00:25 | 33.93692 | -118.40900 | 127 ft | 17 kts | 353° |
| 2026-04-23 00:25 | 33.93823 | -118.40919 | 127 ft | 15 kts | 353° |
| 2026-04-23 00:25 | 33.93873 | -118.40860 | 127 ft | 13 kts | 84° |
| 2026-04-23 00:25 | 33.93887 | -118.40720 | 127 ft | 17 kts | 83° |
| 2026-04-23 00:26 | 33.93901 | -118.40581 | 126 ft | 16 kts | 83° |
| 2026-04-23 00:26 | 33.93915 | -118.40449 | 125 ft | 15 kts | 83° |
| 2026-04-23 00:26 | 33.93929 | -118.40307 | 124 ft | 18 kts | 83° |
| 2026-04-23 00:26 | 33.93945 | -118.40158 | 123 ft | 17 kts | 83° |
| 2026-04-23 00:27 | 33.93975 | -118.40061 | 123 ft | 10 kts | 10° |
| 2026-04-23 00:27 | 33.94055 | -118.40072 | 123 ft | 11 kts | 354° |
| 2026-04-23 00:27 | 33.94126 | -118.40083 | 123 ft | 8 kts | 353° |
| 2026-04-23 00:27 | 33.94181 | -118.40090 | 123 ft | 5 kts | 3° |
| 2026-04-23 00:28 | 33.94197 | -118.40050 | 122 ft | 4 kts | 74° |
| 2026-04-23 00:28 | 33.94203 | -118.40028 | 122 ft | 0 kts | 71° |